sensor_id;sensor_type;location;lat;lon;timestamp;pressure;altitude;pressure_sealevel;temperature;humidity
38303;BME280;24103;42.454;27.400;2022-10-31T00:00:29;100913.97;;;13.08;100.00
38303;BME280;24103;42.454;27.400;2022-10-31T00:02:55;100913.13;;;13.07;99.17
38303;BME280;24103;42.454;27.400;2022-10-31T00:05:20;100913.31;;;13.04;97.33
38303;BME280;24103;42.454;27.400;2022-10-31T00:07:46;100906.00;;;13.08;95.41
38303;BME280;24103;42.454;27.400;2022-10-31T00:10:11;100904.69;;;13.15;95.29
38303;BME280;24103;42.454;27.400;2022-10-31T00:12:37;100902.13;;;13.14;93.74
38303;BME280;24103;42.454;27.400;2022-10-31T00:15:02;100900.13;;;13.17;93.93
38303;BME280;24103;42.454;27.400;2022-10-31T00:17:28;100901.84;;;13.18;94.13
38303;BME280;24103;42.454;27.400;2022-10-31T00:19:53;100899.28;;;13.17;93.91
38303;BME280;24103;42.454;27.400;2022-10-31T00:22:19;100898.31;;;13.18;93.75
38303;BME280;24103;42.454;27.400;2022-10-31T00:24:44;100898.97;;;13.21;94.55
38303;BME280;24103;42.454;27.400;2022-10-31T00:27:10;100897.94;;;13.24;94.00
38303;BME280;24103;42.454;27.400;2022-10-31T00:29:35;100891.00;;;13.21;93.42
38303;BME280;24103;42.454;27.400;2022-10-31T00:32:01;100890.91;;;13.23;93.10
38303;BME280;24103;42.454;27.400;2022-10-31T00:34:26;100901.53;;;13.23;93.94
38303;BME280;24103;42.454;27.400;2022-10-31T00:36:52;100904.19;;;13.23;93.89
38303;BME280;24103;42.454;27.400;2022-10-31T00:39:17;100908.38;;;13.27;95.53
38303;BME280;24103;42.454;27.400;2022-10-31T00:41:43;100904.28;;;13.21;93.52
38303;BME280;24103;42.454;27.400;2022-10-31T00:44:08;100899.84;;;13.22;93.68
38303;BME280;24103;42.454;27.400;2022-10-31T00:46:34;100900.22;;;13.30;93.87
38303;BME280;24103;42.454;27.400;2022-10-31T00:48:59;100897.84;;;13.25;93.41
38303;BME280;24103;42.454;27.400;2022-10-31T00:51:25;100891.59;;;13.26;92.28
38303;BME280;24103;42.454;27.400;2022-10-31T00:53:50;100894.91;;;13.30;89.84
38303;BME280;24103;42.454;27.400;2022-10-31T00:56:16;100893.38;;;13.40;88.98
38303;BME280;24103;42.454;27.400;2022-10-31T00:58:41;100900.59;;;13.38;87.79
38303;BME280;24103;42.454;27.400;2022-10-31T01:01:07;100900.97;;;13.47;87.97
38303;BME280;24103;42.454;27.400;2022-10-31T01:03:33;100900.56;;;13.53;87.58
38303;BME280;24103;42.454;27.400;2022-10-31T01:06:08;100896.84;;;13.55;87.88
38303;BME280;24103;42.454;27.400;2022-10-31T01:08:34;100898.78;;;13.53;87.97
38303;BME280;24103;42.454;27.400;2022-10-31T01:11:13;100905.22;;;13.49;88.12
38303;BME280;24103;42.454;27.400;2022-10-31T01:13:40;100911.50;;;13.48;88.36
38303;BME280;24103;42.454;27.400;2022-10-31T01:16:07;100906.66;;;13.40;88.70
38303;BME280;24103;42.454;27.400;2022-10-31T01:18:33;100908.94;;;13.47;89.43
38303;BME280;24103;42.454;27.400;2022-10-31T01:23:27;100901.53;;;13.37;89.33
38303;BME280;24103;42.454;27.400;2022-10-31T01:26:01;100897.47;;;13.32;88.73
38303;BME280;24103;42.454;27.400;2022-10-31T01:28:27;100893.94;;;13.31;88.60
38303;BME280;24103;42.454;27.400;2022-10-31T01:30:52;100899.97;;;13.35;88.64
38303;BME280;24103;42.454;27.400;2022-10-31T01:33:18;100902.00;;;13.30;88.87
38303;BME280;24103;42.454;27.400;2022-10-31T01:35:43;100901.00;;;13.32;89.75
38303;BME280;24103;42.454;27.400;2022-10-31T01:38:08;100912.59;;;13.30;90.36
38303;BME280;24103;42.454;27.400;2022-10-31T01:40:34;100895.09;;;13.27;89.68
38303;BME280;24103;42.454;27.400;2022-10-31T01:42:59;100909.59;;;13.36;90.72
38303;BME280;24103;42.454;27.400;2022-10-31T01:45:25;100906.19;;;13.34;91.17
38303;BME280;24103;42.454;27.400;2022-10-31T01:47:50;100894.44;;;13.38;90.49
38303;BME280;24103;42.454;27.400;2022-10-31T01:50:32;100900.41;;;13.41;90.33
38303;BME280;24103;42.454;27.400;2022-10-31T01:53:00;100907.41;;;13.42;90.87
38303;BME280;24103;42.454;27.400;2022-10-31T01:55:30;100908.38;;;13.41;91.56
38303;BME280;24103;42.454;27.400;2022-10-31T01:58:09;100907.78;;;13.36;93.58
38303;BME280;24103;42.454;27.400;2022-10-31T02:00:37;100914.41;;;13.29;93.98
38303;BME280;24103;42.454;27.400;2022-10-31T02:03:04;100916.44;;;13.25;93.17
38303;BME280;24103;42.454;27.400;2022-10-31T02:05:31;100915.47;;;13.26;93.21
38303;BME280;24103;42.454;27.400;2022-10-31T02:10:31;100916.44;;;13.25;92.70
38303;BME280;24103;42.454;27.400;2022-10-31T02:12:59;100915.25;;;13.30;93.07
38303;BME280;24103;42.454;27.400;2022-10-31T02:15:26;100914.31;;;13.31;93.42
38303;BME280;24103;42.454;27.400;2022-10-31T02:17:53;100919.81;;;13.27;93.76
38303;BME280;24103;42.454;27.400;2022-10-31T02:20:20;100926.75;;;13.30;93.62
38303;BME280;24103;42.454;27.400;2022-10-31T02:32:00;100919.91;;;13.26;90.94
38303;BME280;24103;42.454;27.400;2022-10-31T02:45:21;100934.72;;;13.16;88.81
38303;BME280;24103;42.454;27.400;2022-10-31T02:47:53;100928.09;;;13.08;88.68
38303;BME280;24103;42.454;27.400;2022-10-31T02:50:31;100927.31;;;13.06;89.67
38303;BME280;24103;42.454;27.400;2022-10-31T02:52:58;100935.88;;;13.12;89.36
38303;BME280;24103;42.454;27.400;2022-10-31T02:58:05;100935.66;;;13.15;89.99
38303;BME280;24103;42.454;27.400;2022-10-31T03:00:40;100937.28;;;13.17;90.88
38303;BME280;24103;42.454;27.400;2022-10-31T03:05:58;100937.28;;;13.17;91.00
38303;BME280;24103;42.454;27.400;2022-10-31T03:11:05;100939.84;;;13.19;91.55
38303;BME280;24103;42.454;27.400;2022-10-31T03:13:39;100945.25;;;13.17;92.25
38303;BME280;24103;42.454;27.400;2022-10-31T03:19:11;100949.00;;;13.13;92.82
38303;BME280;24103;42.454;27.400;2022-10-31T03:21:49;100946.50;;;13.12;93.45
38303;BME280;24103;42.454;27.400;2022-10-31T03:24:16;100940.13;;;13.14;93.54
38303;BME280;24103;42.454;27.400;2022-10-31T03:26:49;100952.34;;;13.17;93.06
38303;BME280;24103;42.454;27.400;2022-10-31T03:29:20;100949.13;;;13.12;93.46
38303;BME280;24103;42.454;27.400;2022-10-31T03:31:57;100949.00;;;13.13;93.73
38303;BME280;24103;42.454;27.400;2022-10-31T03:34:23;100945.25;;;13.17;93.51
38303;BME280;24103;42.454;27.400;2022-10-31T03:36:51;100951.66;;;13.13;93.72
38303;BME280;24103;42.454;27.400;2022-10-31T03:39:20;100951.66;;;13.13;94.17
38303;BME280;24103;42.454;27.400;2022-10-31T03:41:53;100951.47;;;13.16;93.99
38303;BME280;24103;42.454;27.400;2022-10-31T03:44:21;100959.44;;;13.16;93.42
38303;BME280;24103;42.454;27.400;2022-10-31T03:46:49;100954.13;;;13.16;93.92
38303;BME280;24103;42.454;27.400;2022-10-31T03:49:15;100958.59;;;13.16;93.63
38303;BME280;24103;42.454;27.400;2022-10-31T03:54:44;100968.47;;;13.14;94.50
38303;BME280;24103;42.454;27.400;2022-10-31T03:59:42;100970.06;;;13.02;94.44
38303;BME280;24103;42.454;27.400;2022-10-31T04:02:15;100983.25;;;13.03;95.01
38303;BME280;24103;42.454;27.400;2022-10-31T04:04:44;100978.59;;;13.07;93.80
38303;BME280;24103;42.454;27.400;2022-10-31T04:07:12;100971.13;;;13.14;93.06
38303;BME280;24103;42.454;27.400;2022-10-31T04:09:42;100985.88;;;13.18;94.16
38303;BME280;24103;42.454;27.400;2022-10-31T04:12:09;100982.47;;;13.16;94.43
38303;BME280;24103;42.454;27.400;2022-10-31T04:14:41;100987.41;;;13.22;95.12
38303;BME280;24103;42.454;27.400;2022-10-31T04:17:12;100986.63;;;13.20;95.50
38303;BME280;24103;42.454;27.400;2022-10-31T04:19:40;100997.16;;;13.21;95.08
38303;BME280;24103;42.454;27.400;2022-10-31T04:22:05;100994.41;;;13.23;95.10
38303;BME280;24103;42.454;27.400;2022-10-31T04:24:31;100996.97;;;13.24;95.51
38303;BME280;24103;42.454;27.400;2022-10-31T04:26:57;100994.97;;;13.28;94.74
38303;BME280;24103;42.454;27.400;2022-10-31T04:29:23;100998.69;;;13.25;94.16
38303;BME280;24103;42.454;27.400;2022-10-31T04:31:48;100993.94;;;13.31;94.91
38303;BME280;24103;42.454;27.400;2022-10-31T04:34:14;100994.78;;;13.31;93.77
38303;BME280;24103;42.454;27.400;2022-10-31T04:36:39;101002.75;;;13.31;93.10
38303;BME280;24103;42.454;27.400;2022-10-31T04:39:05;101008.00;;;13.33;91.61
38303;BME280;24103;42.454;27.400;2022-10-31T04:41:30;101007.72;;;13.37;91.58
38303;BME280;24103;42.454;27.400;2022-10-31T04:43:56;101010.94;;;13.42;93.13
38303;BME280;24103;42.454;27.400;2022-10-31T04:46:21;101012.75;;;13.42;92.92
38303;BME280;24103;42.454;27.400;2022-10-31T04:48:47;101017.97;;;13.43;92.76
38303;BME280;24103;42.454;27.400;2022-10-31T04:51:12;101029.97;;;13.49;94.29
38303;BME280;24103;42.454;27.400;2022-10-31T04:53:38;101029.88;;;13.51;94.67
38303;BME280;24103;42.454;27.400;2022-10-31T04:56:04;101022.69;;;13.38;90.65
38303;BME280;24103;42.454;27.400;2022-10-31T04:58:29;101018.53;;;13.34;89.77
38303;BME280;24103;42.454;27.400;2022-10-31T05:00:55;101025.53;;;13.35;88.86
38303;BME280;24103;42.454;27.400;2022-10-31T05:03:21;101028.09;;;13.37;88.13
38303;BME280;24103;42.454;27.400;2022-10-31T05:05:47;101043.06;;;13.38;88.01
38303;BME280;24103;42.454;27.400;2022-10-31T05:08:13;101045.06;;;13.34;88.53
38303;BME280;24103;42.454;27.400;2022-10-31T05:10:39;101044.59;;;13.42;88.99
38303;BME280;24103;42.454;27.400;2022-10-31T05:13:05;101045.81;;;13.51;89.05
38303;BME280;24103;42.454;27.400;2022-10-31T05:15:30;101045.63;;;13.54;90.96
38303;BME280;24103;42.454;27.400;2022-10-31T05:17:56;101048.00;;;13.58;90.51
38303;BME280;24103;42.454;27.400;2022-10-31T05:20:25;101066.13;;;13.66;90.10
38303;BME280;24103;42.454;27.400;2022-10-31T05:22:54;101064.13;;;13.70;91.05
38303;BME280;24103;42.454;27.400;2022-10-31T05:25:22;101069.25;;;13.73;91.29
38303;BME280;24103;42.454;27.400;2022-10-31T05:27:50;101068.66;;;13.82;91.35
38303;BME280;24103;42.454;27.400;2022-10-31T05:30:22;101070.16;;;13.86;93.72
38303;BME280;24103;42.454;27.400;2022-10-31T05:32:49;101079.81;;;13.87;97.81
38303;BME280;24103;42.454;27.400;2022-10-31T05:35:20;101088.16;;;13.95;98.77
38303;BME280;24103;42.454;27.400;2022-10-31T05:37:46;101099.53;;;14.12;97.98
38303;BME280;24103;42.454;27.400;2022-10-31T05:40:14;101097.78;;;14.25;96.68
38303;BME280;24103;42.454;27.400;2022-10-31T05:42:40;101101.47;;;14.37;94.83
38303;BME280;24103;42.454;27.400;2022-10-31T05:45:08;101101.34;;;14.38;94.43
38303;BME280;24103;42.454;27.400;2022-10-31T05:47:34;101100.31;;;14.41;93.72
38303;BME280;24103;42.454;27.400;2022-10-31T05:49:59;101111.00;;;14.54;93.29
38303;BME280;24103;42.454;27.400;2022-10-31T05:52:25;101108.53;;;14.65;92.74
38303;BME280;24103;42.454;27.400;2022-10-31T05:54:50;101109.22;;;14.82;91.95
38303;BME280;24103;42.454;27.400;2022-10-31T05:57:16;101115.50;;;14.93;90.91
38303;BME280;24103;42.454;27.400;2022-10-31T05:59:41;101103.81;;;15.09;89.74
38303;BME280;24103;42.454;27.400;2022-10-31T06:02:07;101099.34;;;15.22;88.06
38303;BME280;24103;42.454;27.400;2022-10-31T06:04:32;101102.78;;;15.37;86.66
38303;BME280;24103;42.454;27.400;2022-10-31T06:06:58;101102.56;;;15.53;85.62
38303;BME280;24103;42.454;27.400;2022-10-31T06:09:23;101099.34;;;15.74;84.73
38303;BME280;24103;42.454;27.400;2022-10-31T06:11:49;101104.91;;;15.83;84.36
38303;BME280;24103;42.454;27.400;2022-10-31T06:14:14;101107.94;;;16.16;84.62
38303;BME280;24103;42.454;27.400;2022-10-31T06:16:40;101104.66;;;16.36;83.38
38303;BME280;24103;42.454;27.400;2022-10-31T06:19:05;101102.22;;;16.57;81.42
38303;BME280;24103;42.454;27.400;2022-10-31T06:21:31;101100.06;;;16.87;76.88
38303;BME280;24103;42.454;27.400;2022-10-31T06:23:56;101093.81;;;17.10;74.83
38303;BME280;24103;42.454;27.400;2022-10-31T06:26:22;101082.97;;;17.47;72.41
38303;BME280;24103;42.454;27.400;2022-10-31T06:28:47;101076.53;;;17.95;67.80
38303;BME280;24103;42.454;27.400;2022-10-31T06:31:13;101074.47;;;18.31;63.45
38303;BME280;24103;42.454;27.400;2022-10-31T06:33:41;101069.84;;;18.45;60.65
38303;BME280;24103;42.454;27.400;2022-10-31T06:36:07;101070.22;;;18.40;59.95
38303;BME280;24103;42.454;27.400;2022-10-31T06:38:32;101072.25;;;18.48;59.21
38303;BME280;24103;42.454;27.400;2022-10-31T06:41:02;101070.19;;;18.72;58.14
38303;BME280;24103;42.454;27.400;2022-10-31T06:43:28;101080.63;;;18.87;57.99
38303;BME280;24103;42.454;27.400;2022-10-31T06:45:53;101079.13;;;18.94;57.45
38303;BME280;24103;42.454;27.400;2022-10-31T06:48:19;101086.25;;;19.05;57.25
38303;BME280;24103;42.454;27.400;2022-10-31T06:50:44;101084.25;;;19.49;56.09
38303;BME280;24103;42.454;27.400;2022-10-31T06:53:10;101071.38;;;20.24;53.83
38303;BME280;24103;42.454;27.400;2022-10-31T06:55:36;101059.69;;;21.41;50.26
38303;BME280;24103;42.454;27.400;2022-10-31T06:58:01;101040.28;;;22.48;46.90
38303;BME280;24103;42.454;27.400;2022-10-31T07:00:29;101026.75;;;23.28;44.69
38303;BME280;24103;42.454;27.400;2022-10-31T07:05:23;101026.53;;;24.07;41.92
38303;BME280;24103;42.454;27.400;2022-10-31T07:07:56;101037.88;;;24.10;41.58
38303;BME280;24103;42.454;27.400;2022-10-31T07:10:24;101044.47;;;23.39;42.63
38303;BME280;24103;42.454;27.400;2022-10-31T07:12:57;101051.47;;;22.79;44.12
38303;BME280;24103;42.454;27.400;2022-10-31T07:15:24;101061.38;;;21.79;46.31
38303;BME280;24103;42.454;27.400;2022-10-31T07:17:51;101065.00;;;21.23;47.99
38303;BME280;24103;42.454;27.400;2022-10-31T07:20:16;101081.44;;;20.90;48.60
38303;BME280;24103;42.454;27.400;2022-10-31T07:22:42;101082.47;;;20.70;49.67
38303;BME280;24103;42.454;27.400;2022-10-31T07:25:08;101084.81;;;20.34;49.25
38303;BME280;24103;42.454;27.400;2022-10-31T07:27:38;101089.13;;;20.05;50.55
38303;BME280;24103;42.454;27.400;2022-10-31T07:30:05;101091.75;;;19.86;50.94
38303;BME280;24103;42.454;27.400;2022-10-31T07:32:41;101097.69;;;19.59;52.48
38303;BME280;24103;42.454;27.400;2022-10-31T07:35:08;101103.78;;;19.61;52.83
38303;BME280;24103;42.454;27.400;2022-10-31T07:37:34;101104.81;;;19.48;53.95
38303;BME280;24103;42.454;27.400;2022-10-31T07:40:00;101110.34;;;19.47;54.10
38303;BME280;24103;42.454;27.400;2022-10-31T07:42:26;101105.06;;;19.36;53.05
38303;BME280;24103;42.454;27.400;2022-10-31T07:44:52;101105.31;;;19.32;53.27
38303;BME280;24103;42.454;27.400;2022-10-31T07:47:17;101112.03;;;19.27;53.02
38303;BME280;24103;42.454;27.400;2022-10-31T07:49:43;101105.84;;;19.26;52.63
38303;BME280;24103;42.454;27.400;2022-10-31T07:52:08;101103.88;;;19.28;51.58
38303;BME280;24103;42.454;27.400;2022-10-31T07:54:34;101116.69;;;19.25;52.37
38303;BME280;24103;42.454;27.400;2022-10-31T07:56:59;101106.97;;;19.24;51.94
38303;BME280;24103;42.454;27.400;2022-10-31T07:59:24;101112.25;;;19.14;52.48
38303;BME280;24103;42.454;27.400;2022-10-31T08:01:51;101115.50;;;19.39;51.68
38303;BME280;24103;42.454;27.400;2022-10-31T08:04:16;101109.41;;;19.58;51.30
38303;BME280;24103;42.454;27.400;2022-10-31T08:06:42;101108.47;;;19.68;50.85
38303;BME280;24103;42.454;27.400;2022-10-31T08:09:07;101106.00;;;19.77;50.73
38303;BME280;24103;42.454;27.400;2022-10-31T08:11:33;101104.59;;;19.82;51.06
38303;BME280;24103;42.454;27.400;2022-10-31T08:13:58;101106.78;;;19.98;50.71
38303;BME280;24103;42.454;27.400;2022-10-31T08:16:23;101112.75;;;20.12;51.33
38303;BME280;24103;42.454;27.400;2022-10-31T08:18:49;101110.25;;;20.59;50.60
38303;BME280;24103;42.454;27.400;2022-10-31T08:21:14;101116.63;;;21.07;49.42
38303;BME280;24103;42.454;27.400;2022-10-31T08:23:40;101101.13;;;21.58;47.98
38303;BME280;24103;42.454;27.400;2022-10-31T08:26:05;101110.59;;;21.62;48.32
38303;BME280;24103;42.454;27.400;2022-10-31T08:28:32;101106.44;;;21.77;47.73
38303;BME280;24103;42.454;27.400;2022-10-31T08:30:58;101111.59;;;21.61;48.47
38303;BME280;24103;42.454;27.400;2022-10-31T08:33:24;101116.16;;;21.41;49.31
38303;BME280;24103;42.454;27.400;2022-10-31T08:35:49;101110.09;;;21.48;49.38
38303;BME280;24103;42.454;27.400;2022-10-31T08:38:15;101130.78;;;21.19;50.41
38303;BME280;24103;42.454;27.400;2022-10-31T08:40:41;101123.84;;;20.67;51.87
38303;BME280;24103;42.454;27.400;2022-10-31T08:43:10;101131.78;;;20.69;52.41
38303;BME280;24103;42.454;27.400;2022-10-31T08:45:36;101130.50;;;20.63;52.26
38303;BME280;24103;42.454;27.400;2022-10-31T08:48:06;101131.59;;;20.41;52.84
38303;BME280;24103;42.454;27.400;2022-10-31T08:50:34;101128.44;;;20.36;53.65
38303;BME280;24103;42.454;27.400;2022-10-31T08:53:02;101140.59;;;20.30;54.32
38303;BME280;24103;42.454;27.400;2022-10-31T08:55:28;101134.63;;;20.17;53.71
38303;BME280;24103;42.454;27.400;2022-10-31T08:57:57;101147.88;;;20.09;53.87
38303;BME280;24103;42.454;27.400;2022-10-31T09:00:23;101147.31;;;20.05;54.68
38303;BME280;24103;42.454;27.400;2022-10-31T09:03:01;101146.47;;;20.14;55.06
38303;BME280;24103;42.454;27.400;2022-10-31T09:05:27;101146.91;;;20.19;54.87
38303;BME280;24103;42.454;27.400;2022-10-31T09:07:57;101139.47;;;20.23;54.15
38303;BME280;24103;42.454;27.400;2022-10-31T09:10:24;101139.75;;;20.30;55.39
38303;BME280;24103;42.454;27.400;2022-10-31T09:12:56;101149.63;;;20.29;54.77
38303;BME280;24103;42.454;27.400;2022-10-31T09:15:23;101152.16;;;20.21;56.25
38303;BME280;24103;42.454;27.400;2022-10-31T09:17:48;101168.38;;;20.10;56.86
38303;BME280;24103;42.454;27.400;2022-10-31T09:20:14;101162.28;;;20.07;57.77
38303;BME280;24103;42.454;27.400;2022-10-31T09:22:40;101159.34;;;20.20;57.59
38303;BME280;24103;42.454;27.400;2022-10-31T09:25:05;101163.19;;;20.18;58.14
38303;BME280;24103;42.454;27.400;2022-10-31T09:27:31;101164.56;;;20.12;60.36
38303;BME280;24103;42.454;27.400;2022-10-31T09:29:56;101162.00;;;20.11;59.45
38303;BME280;24103;42.454;27.400;2022-10-31T09:32:22;101166.94;;;20.05;61.59
38303;BME280;24103;42.454;27.400;2022-10-31T09:34:47;101165.56;;;20.21;62.84
38303;BME280;24103;42.454;27.400;2022-10-31T09:37:13;101172.25;;;20.36;62.91
38303;BME280;24103;42.454;27.400;2022-10-31T09:39:38;101169.41;;;20.28;61.67
38303;BME280;24103;42.454;27.400;2022-10-31T09:42:42;101175.69;;;20.07;63.66
38303;BME280;24103;42.454;27.400;2022-10-31T09:48:11;101175.94;;;20.04;65.65
38303;BME280;24103;42.454;27.400;2022-10-31T09:50:46;101179.38;;;20.06;68.05
38303;BME280;24103;42.454;27.400;2022-10-31T09:55:49;101177.94;;;20.02;70.99
38303;BME280;24103;42.454;27.400;2022-10-31T09:58:41;101180.06;;;20.09;72.30
38303;BME280;24103;42.454;27.400;2022-10-31T10:01:17;101188.91;;;19.99;74.40
38303;BME280;24103;42.454;27.400;2022-10-31T10:03:48;101196.56;;;20.04;75.03
38303;BME280;24103;42.454;27.400;2022-10-31T10:06:25;101189.06;;;19.98;78.46
38303;BME280;24103;42.454;27.400;2022-10-31T10:08:52;101194.31;;;20.09;78.58
38303;BME280;24103;42.454;27.400;2022-10-31T10:11:28;101199.81;;;20.07;81.09
38303;BME280;24103;42.454;27.400;2022-10-31T10:14:32;101186.31;;;20.19;77.20
38303;BME280;24103;42.454;27.400;2022-10-31T10:30:16;101179.16;;;20.39;77.22
38303;BME280;24103;42.454;27.400;2022-10-31T10:32:46;101172.66;;;20.32;78.20
38303;BME280;24103;42.454;27.400;2022-10-31T10:38:22;101193.44;;;19.99;91.73
38303;BME280;24103;42.454;27.400;2022-10-31T10:40:49;101198.09;;;19.97;93.71
38303;BME280;24103;42.454;27.400;2022-10-31T10:46:04;101200.06;;;19.95;98.08
38303;BME280;24103;42.454;27.400;2022-10-31T10:59:32;101199.41;;;19.81;100.00
38303;BME280;24103;42.454;27.400;2022-10-31T11:01:58;101192.94;;;19.84;100.00
38303;BME280;24103;42.454;27.400;2022-10-31T11:04:42;101195.91;;;19.81;100.00
38303;BME280;24103;42.454;27.400;2022-10-31T11:07:10;101195.88;;;20.02;100.00
38303;BME280;24103;42.454;27.400;2022-10-31T11:09:37;101181.06;;;20.07;97.28
38303;BME280;24103;42.454;27.400;2022-10-31T11:12:26;101184.31;;;20.11;99.43
38303;BME280;24103;42.454;27.400;2022-10-31T11:14:56;101186.28;;;20.09;100.00
38303;BME280;24103;42.454;27.400;2022-10-31T11:17:31;101179.63;;;20.03;100.00
38303;BME280;24103;42.454;27.400;2022-10-31T11:22:37;101180.59;;;20.02;96.71
38303;BME280;24103;42.454;27.400;2022-10-31T11:27:47;101171.28;;;19.97;93.55
38303;BME280;24103;42.454;27.400;2022-10-31T11:30:23;101167.19;;;20.02;94.05
38303;BME280;24103;42.454;27.400;2022-10-31T11:32:50;101154.78;;;20.11;91.12
38303;BME280;24103;42.454;27.400;2022-10-31T11:35:18;101150.34;;;20.21;90.15
38303;BME280;24103;42.454;27.400;2022-10-31T11:37:46;101154.28;;;20.27;88.66
38303;BME280;24103;42.454;27.400;2022-10-31T11:40:31;101149.75;;;20.18;87.32
38303;BME280;24103;42.454;27.400;2022-10-31T11:42:58;101144.09;;;20.21;86.08
38303;BME280;24103;42.454;27.400;2022-10-31T11:45:33;101136.34;;;20.18;86.39
38303;BME280;24103;42.454;27.400;2022-10-31T11:48:01;101133.34;;;20.21;85.80
38303;BME280;24103;42.454;27.400;2022-10-31T11:50:35;101131.28;;;20.24;82.97
38303;BME280;24103;42.454;27.400;2022-10-31T11:53:02;101135.22;;;20.30;81.68
38303;BME280;24103;42.454;27.400;2022-10-31T11:57:56;101124.19;;;20.23;82.46
38303;BME280;24103;42.454;27.400;2022-10-31T12:00:28;101122.22;;;20.25;80.41
38303;BME280;24103;42.454;27.400;2022-10-31T12:05:55;101123.25;;;20.34;80.21
38303;BME280;24103;42.454;27.400;2022-10-31T12:08:27;101127.47;;;20.37;81.53
38303;BME280;24103;42.454;27.400;2022-10-31T12:13:34;101130.69;;;20.31;82.64
38303;BME280;24103;42.454;27.400;2022-10-31T12:16:31;101126.22;;;20.31;83.01
38303;BME280;24103;42.454;27.400;2022-10-31T12:21:42;101126.63;;;20.27;85.77
38303;BME280;24103;42.454;27.400;2022-10-31T12:33:49;101130.28;;;20.25;84.45
38303;BME280;24103;42.454;27.400;2022-10-31T12:55:43;101140.53;;;20.11;86.92
38303;BME280;24103;42.454;27.400;2022-10-31T12:58:20;101137.16;;;20.09;85.03
38303;BME280;24103;42.454;27.400;2022-10-31T13:00:50;101140.09;;;20.05;84.66
38303;BME280;24103;42.454;27.400;2022-10-31T13:03:25;101142.09;;;20.03;85.66
38303;BME280;24103;42.454;27.400;2022-10-31T13:05:56;101143.22;;;20.11;82.65
38303;BME280;24103;42.454;27.400;2022-10-31T13:08:28;101142.53;;;20.09;82.97
38303;BME280;24103;42.454;27.400;2022-10-31T13:11:05;101146.47;;;20.14;82.63
38303;BME280;24103;42.454;27.400;2022-10-31T13:16:38;101151.53;;;20.07;82.24
38303;BME280;24103;42.454;27.400;2022-10-31T13:19:21;101146.44;;;19.95;83.08
38303;BME280;24103;42.454;27.400;2022-10-31T13:24:36;101155.72;;;19.91;83.53
38303;BME280;24103;42.454;27.400;2022-10-31T13:27:21;101147.81;;;19.89;82.66
38303;BME280;24103;42.454;27.400;2022-10-31T13:30:04;101155.28;;;19.85;81.85
38303;BME280;24103;42.454;27.400;2022-10-31T13:33:01;101140.44;;;19.81;81.23
38303;BME280;24103;42.454;27.400;2022-10-31T13:35:51;101142.56;;;19.87;79.87
38303;BME280;24103;42.454;27.400;2022-10-31T13:46:37;101142.44;;;19.68;79.08
38303;BME280;24103;42.454;27.400;2022-10-31T13:49:04;101143.91;;;19.72;78.76
38303;BME280;24103;42.454;27.400;2022-10-31T13:51:32;101140.78;;;19.67;78.92
38303;BME280;24103;42.454;27.400;2022-10-31T13:54:33;101143.06;;;19.72;77.24
38303;BME280;24103;42.454;27.400;2022-10-31T13:56:59;101139.16;;;19.76;76.53
38303;BME280;24103;42.454;27.400;2022-10-31T13:59:29;101137.41;;;19.75;76.83
38303;BME280;24103;42.454;27.400;2022-10-31T14:02:01;101145.75;;;19.72;76.70
38303;BME280;24103;42.454;27.400;2022-10-31T14:07:04;101144.41;;;19.66;75.38
38303;BME280;24103;42.454;27.400;2022-10-31T14:09:34;101148.38;;;19.62;75.64
38303;BME280;24103;42.454;27.400;2022-10-31T14:12:03;101141.81;;;19.55;76.10
38303;BME280;24103;42.454;27.400;2022-10-31T14:14:35;101149.03;;;19.54;76.14
38303;BME280;24103;42.454;27.400;2022-10-31T14:17:05;101144.06;;;19.49;76.00
38303;BME280;24103;42.454;27.400;2022-10-31T14:19:31;101147.00;;;19.46;76.23
38303;BME280;24103;42.454;27.400;2022-10-31T14:21:56;101151.91;;;19.41;76.38
38303;BME280;24103;42.454;27.400;2022-10-31T14:29:49;101154.25;;;19.13;78.47
38303;BME280;24103;42.454;27.400;2022-10-31T14:32:23;101156.25;;;19.00;79.25
38303;BME280;24103;42.454;27.400;2022-10-31T14:43:21;101160.41;;;18.60;79.04
38303;BME280;24103;42.454;27.400;2022-10-31T14:51:46;101164.97;;;18.26;80.00
38303;BME280;24103;42.454;27.400;2022-10-31T14:54:35;101162.19;;;18.16;79.01
38303;BME280;24103;42.454;27.400;2022-10-31T14:57:06;101167.03;;;18.00;79.51
38303;BME280;24103;42.454;27.400;2022-10-31T14:59:35;101166.81;;;17.92;79.60
38303;BME280;24103;42.454;27.400;2022-10-31T15:02:15;101172.72;;;17.73;80.37
38303;BME280;24103;42.454;27.400;2022-10-31T15:04:44;101177.56;;;17.56;81.60
38303;BME280;24103;42.454;27.400;2022-10-31T15:07:20;101168.06;;;17.41;82.15
38303;BME280;24103;42.454;27.400;2022-10-31T15:09:56;101175.06;;;17.30;82.50
38303;BME280;24103;42.454;27.400;2022-10-31T15:14:49;101179.03;;;17.13;83.92
38303;BME280;24103;42.454;27.400;2022-10-31T15:17:15;101183.69;;;16.99;84.83
38303;BME280;24103;42.454;27.400;2022-10-31T15:19:41;101185.47;;;16.87;86.01
38303;BME280;24103;42.454;27.400;2022-10-31T15:22:10;101186.00;;;16.79;87.21
38303;BME280;24103;42.454;27.400;2022-10-31T15:24:39;101181.59;;;16.67;87.72
38303;BME280;24103;42.454;27.400;2022-10-31T15:27:05;101183.84;;;16.60;88.77
38303;BME280;24103;42.454;27.400;2022-10-31T15:29:35;101191.09;;;16.58;88.29
38303;BME280;24103;42.454;27.400;2022-10-31T15:32:25;101188.28;;;16.48;89.06